sensor_id;sensor_type;location;lat;lon;timestamp;P1;durP1;ratioP1;P2;durP2;ratioP2
72087;SDS011;59961;50.232;8.616;2024-01-25T00:01:35;12.77;;;2.23;;
72087;SDS011;59961;50.232;8.616;2024-01-25T00:04:00;14.73;;;2.33;;
72087;SDS011;59961;50.232;8.616;2024-01-25T00:06:25;17.00;;;3.17;;
72087;SDS011;59961;50.232;8.616;2024-01-25T00:08:50;10.70;;;2.00;;
72087;SDS011;59961;50.232;8.616;2024-01-25T00:11:15;16.08;;;2.28;;
72087;SDS011;59961;50.232;8.616;2024-01-25T00:13:40;15.20;;;3.25;;
72087;SDS011;59961;50.232;8.616;2024-01-25T00:16:06;15.85;;;2.20;;
72087;SDS011;59961;50.232;8.616;2024-01-25T00:18:31;20.50;;;3.00;;
72087;SDS011;59961;50.232;8.616;2024-01-25T00:20:56;19.58;;;3.22;;
72087;SDS011;59961;50.232;8.616;2024-01-25T00:23:21;15.93;;;2.80;;
72087;SDS011;59961;50.232;8.616;2024-01-25T00:25:47;16.37;;;2.50;;
72087;SDS011;59961;50.232;8.616;2024-01-25T00:28:12;15.53;;;1.90;;
72087;SDS011;59961;50.232;8.616;2024-01-25T00:30:38;13.37;;;2.20;;
72087;SDS011;59961;50.232;8.616;2024-01-25T00:33:03;16.33;;;2.87;;
72087;SDS011;59961;50.232;8.616;2024-01-25T00:35:28;11.90;;;1.83;;
72087;SDS011;59961;50.232;8.616;2024-01-25T00:37:53;13.83;;;2.70;;
72087;SDS011;59961;50.232;8.616;2024-01-25T00:40:19;18.33;;;3.20;;
72087;SDS011;59961;50.232;8.616;2024-01-25T00:42:45;14.63;;;2.63;;
72087;SDS011;59961;50.232;8.616;2024-01-25T00:45:13;14.38;;;2.05;;
72087;SDS011;59961;50.232;8.616;2024-01-25T00:47:39;17.53;;;2.73;;
72087;SDS011;59961;50.232;8.616;2024-01-25T00:50:04;8.57;;;1.90;;
72087;SDS011;59961;50.232;8.616;2024-01-25T00:52:30;12.73;;;2.20;;
72087;SDS011;59961;50.232;8.616;2024-01-25T00:54:55;17.53;;;2.30;;
72087;SDS011;59961;50.232;8.616;2024-01-25T00:57:21;11.93;;;1.97;;
72087;SDS011;59961;50.232;8.616;2024-01-25T00:59:46;12.20;;;2.20;;
72087;SDS011;59961;50.232;8.616;2024-01-25T01:02:12;13.67;;;2.50;;
72087;SDS011;59961;50.232;8.616;2024-01-25T01:04:37;12.25;;;2.28;;
72087;SDS011;59961;50.232;8.616;2024-01-25T01:07:03;14.20;;;2.53;;
72087;SDS011;59961;50.232;8.616;2024-01-25T01:09:28;10.13;;;1.93;;
72087;SDS011;59961;50.232;8.616;2024-01-25T01:11:53;15.20;;;2.27;;
72087;SDS011;59961;50.232;8.616;2024-01-25T01:14:18;11.70;;;2.08;;
72087;SDS011;59961;50.232;8.616;2024-01-25T01:16:44;19.03;;;2.67;;
72087;SDS011;59961;50.232;8.616;2024-01-25T01:19:09;15.57;;;3.10;;
72087;SDS011;59961;50.232;8.616;2024-01-25T01:21:34;11.33;;;2.50;;
72087;SDS011;59961;50.232;8.616;2024-01-25T01:24:00;13.80;;;2.47;;
72087;SDS011;59961;50.232;8.616;2024-01-25T01:26:26;17.42;;;2.40;;
72087;SDS011;59961;50.232;8.616;2024-01-25T01:28:51;12.63;;;2.08;;
72087;SDS011;59961;50.232;8.616;2024-01-25T01:31:16;15.03;;;2.30;;
72087;SDS011;59961;50.232;8.616;2024-01-25T01:33:41;18.33;;;2.70;;
72087;SDS011;59961;50.232;8.616;2024-01-25T01:36:06;18.83;;;2.53;;
72087;SDS011;59961;50.232;8.616;2024-01-25T01:38:31;15.53;;;2.53;;
72087;SDS011;59961;50.232;8.616;2024-01-25T01:40:57;13.52;;;2.08;;
72087;SDS011;59961;50.232;8.616;2024-01-25T01:43:22;11.60;;;2.30;;
72087;SDS011;59961;50.232;8.616;2024-01-25T01:45:48;15.00;;;2.65;;
72087;SDS011;59961;50.232;8.616;2024-01-25T01:48:13;15.87;;;2.27;;
72087;SDS011;59961;50.232;8.616;2024-01-25T01:50:38;16.00;;;2.63;;
72087;SDS011;59961;50.232;8.616;2024-01-25T01:53:04;11.80;;;2.03;;
72087;SDS011;59961;50.232;8.616;2024-01-25T01:55:29;18.42;;;2.72;;
72087;SDS011;59961;50.232;8.616;2024-01-25T01:57:54;13.60;;;2.17;;
72087;SDS011;59961;50.232;8.616;2024-01-25T02:00:20;16.50;;;2.93;;
72087;SDS011;59961;50.232;8.616;2024-01-25T02:02:46;18.00;;;2.20;;
72087;SDS011;59961;50.232;8.616;2024-01-25T02:05:12;16.10;;;2.20;;
72087;SDS011;59961;50.232;8.616;2024-01-25T02:07:38;17.02;;;2.60;;
72087;SDS011;59961;50.232;8.616;2024-01-25T02:10:05;16.87;;;2.70;;
72087;SDS011;59961;50.232;8.616;2024-01-25T02:12:30;12.55;;;2.25;;
72087;SDS011;59961;50.232;8.616;2024-01-25T02:14:55;12.10;;;2.17;;
72087;SDS011;59961;50.232;8.616;2024-01-25T02:17:20;13.90;;;2.75;;
72087;SDS011;59961;50.232;8.616;2024-01-25T02:19:46;19.90;;;2.80;;
72087;SDS011;59961;50.232;8.616;2024-01-25T02:24:36;13.60;;;2.47;;
72087;SDS011;59961;50.232;8.616;2024-01-25T02:27:01;12.07;;;2.03;;
72087;SDS011;59961;50.232;8.616;2024-01-25T02:29:30;13.87;;;2.23;;
72087;SDS011;59961;50.232;8.616;2024-01-25T02:31:55;17.60;;;2.42;;
72087;SDS011;59961;50.232;8.616;2024-01-25T02:34:20;15.37;;;2.80;;
72087;SDS011;59961;50.232;8.616;2024-01-25T02:36:45;15.87;;;2.80;;
72087;SDS011;59961;50.232;8.616;2024-01-25T02:39:10;18.55;;;3.20;;
72087;SDS011;59961;50.232;8.616;2024-01-25T02:41:35;15.10;;;2.03;;
72087;SDS011;59961;50.232;8.616;2024-01-25T02:44:00;16.23;;;2.33;;
72087;SDS011;59961;50.232;8.616;2024-01-25T02:46:26;18.63;;;2.47;;
72087;SDS011;59961;50.232;8.616;2024-01-25T02:48:51;14.90;;;2.57;;
72087;SDS011;59961;50.232;8.616;2024-01-25T02:51:16;15.27;;;2.13;;
72087;SDS011;59961;50.232;8.616;2024-01-25T02:53:42;12.60;;;2.20;;
72087;SDS011;59961;50.232;8.616;2024-01-25T02:56:07;12.40;;;2.83;;
72087;SDS011;59961;50.232;8.616;2024-01-25T02:58:32;13.68;;;2.35;;
72087;SDS011;59961;50.232;8.616;2024-01-25T03:00:57;13.03;;;2.30;;
72087;SDS011;59961;50.232;8.616;2024-01-25T03:03:22;18.55;;;2.40;;
72087;SDS011;59961;50.232;8.616;2024-01-25T03:05:48;14.85;;;2.70;;
72087;SDS011;59961;50.232;8.616;2024-01-25T03:08:14;14.33;;;2.57;;
72087;SDS011;59961;50.232;8.616;2024-01-25T03:10:39;14.80;;;2.30;;
72087;SDS011;59961;50.232;8.616;2024-01-25T03:13:04;18.20;;;2.38;;
72087;SDS011;59961;50.232;8.616;2024-01-25T03:15:30;15.67;;;2.30;;
72087;SDS011;59961;50.232;8.616;2024-01-25T03:17:55;22.13;;;2.90;;
72087;SDS011;59961;50.232;8.616;2024-01-25T03:20:20;14.07;;;2.37;;
72087;SDS011;59961;50.232;8.616;2024-01-25T03:22:45;15.33;;;2.43;;
72087;SDS011;59961;50.232;8.616;2024-01-25T03:25:10;20.98;;;2.55;;
72087;SDS011;59961;50.232;8.616;2024-01-25T03:27:35;17.70;;;3.40;;
72087;SDS011;59961;50.232;8.616;2024-01-25T03:30:00;11.23;;;2.20;;
72087;SDS011;59961;50.232;8.616;2024-01-25T03:32:26;15.70;;;2.63;;
72087;SDS011;59961;50.232;8.616;2024-01-25T03:34:51;24.13;;;3.03;;
72087;SDS011;59961;50.232;8.616;2024-01-25T03:37:16;14.00;;;3.17;;
72087;SDS011;59961;50.232;8.616;2024-01-25T03:39:41;13.13;;;2.87;;
72087;SDS011;59961;50.232;8.616;2024-01-25T03:42:06;17.77;;;2.90;;
72087;SDS011;59961;50.232;8.616;2024-01-25T03:44:32;16.50;;;3.10;;
72087;SDS011;59961;50.232;8.616;2024-01-25T03:46:57;20.60;;;2.97;;
72087;SDS011;59961;50.232;8.616;2024-01-25T03:49:22;19.65;;;3.17;;
72087;SDS011;59961;50.232;8.616;2024-01-25T03:51:48;15.67;;;2.63;;
72087;SDS011;59961;50.232;8.616;2024-01-25T03:54:13;18.27;;;3.53;;
72087;SDS011;59961;50.232;8.616;2024-01-25T03:56:38;19.60;;;3.50;;
72087;SDS011;59961;50.232;8.616;2024-01-25T03:59:03;15.50;;;2.78;;
72087;SDS011;59961;50.232;8.616;2024-01-25T04:01:28;12.07;;;2.83;;
72087;SDS011;59961;50.232;8.616;2024-01-25T04:03:53;11.15;;;2.25;;
72087;SDS011;59961;50.232;8.616;2024-01-25T04:06:19;10.83;;;2.20;;
72087;SDS011;59961;50.232;8.616;2024-01-25T04:08:44;13.57;;;2.70;;
72087;SDS011;59961;50.232;8.616;2024-01-25T04:11:09;17.80;;;2.83;;
72087;SDS011;59961;50.232;8.616;2024-01-25T04:13:38;15.47;;;3.20;;
72087;SDS011;59961;50.232;8.616;2024-01-25T04:16:03;12.68;;;2.55;;
72087;SDS011;59961;50.232;8.616;2024-01-25T04:18:28;11.20;;;2.50;;
72087;SDS011;59961;50.232;8.616;2024-01-25T04:20:53;22.30;;;2.93;;
72087;SDS011;59961;50.232;8.616;2024-01-25T04:23:18;16.20;;;2.50;;
72087;SDS011;59961;50.232;8.616;2024-01-25T04:25:43;20.40;;;3.03;;
72087;SDS011;59961;50.232;8.616;2024-01-25T04:28:09;16.23;;;2.93;;
72087;SDS011;59961;50.232;8.616;2024-01-25T04:30:34;10.80;;;3.03;;
72087;SDS011;59961;50.232;8.616;2024-01-25T04:32:59;17.40;;;3.35;;
72087;SDS011;59961;50.232;8.616;2024-01-25T04:35:24;15.57;;;3.27;;
72087;SDS011;59961;50.232;8.616;2024-01-25T04:37:50;17.43;;;3.17;;
72087;SDS011;59961;50.232;8.616;2024-01-25T04:40:15;16.10;;;3.22;;
72087;SDS011;59961;50.232;8.616;2024-01-25T04:42:40;14.17;;;2.90;;
72087;SDS011;59961;50.232;8.616;2024-01-25T04:45:05;10.70;;;2.95;;
72087;SDS011;59961;50.232;8.616;2024-01-25T04:47:31;12.87;;;3.07;;
72087;SDS011;59961;50.232;8.616;2024-01-25T04:49:56;14.70;;;2.83;;
72087;SDS011;59961;50.232;8.616;2024-01-25T04:52:21;9.63;;;2.22;;
72087;SDS011;59961;50.232;8.616;2024-01-25T04:54:46;17.77;;;2.60;;
72087;SDS011;59961;50.232;8.616;2024-01-25T04:57:11;14.55;;;2.85;;
72087;SDS011;59961;50.232;8.616;2024-01-25T04:59:36;15.52;;;2.70;;
72087;SDS011;59961;50.232;8.616;2024-01-25T05:02:01;14.80;;;3.37;;
72087;SDS011;59961;50.232;8.616;2024-01-25T05:04:28;16.43;;;2.83;;
72087;SDS011;59961;50.232;8.616;2024-01-25T05:06:54;10.60;;;2.63;;
72087;SDS011;59961;50.232;8.616;2024-01-25T05:09:19;19.67;;;3.00;;
72087;SDS011;59961;50.232;8.616;2024-01-25T05:11:44;16.47;;;2.43;;
72087;SDS011;59961;50.232;8.616;2024-01-25T05:14:09;17.90;;;2.95;;
72087;SDS011;59961;50.232;8.616;2024-01-25T05:16:34;20.30;;;3.20;;
72087;SDS011;59961;50.232;8.616;2024-01-25T05:19:02;15.40;;;2.72;;
72087;SDS011;59961;50.232;8.616;2024-01-25T05:21:27;17.52;;;2.63;;
72087;SDS011;59961;50.232;8.616;2024-01-25T05:23:52;19.20;;;3.38;;
72087;SDS011;59961;50.232;8.616;2024-01-25T05:26:18;18.77;;;3.15;;
72087;SDS011;59961;50.232;8.616;2024-01-25T05:28:43;10.93;;;2.63;;
72087;SDS011;59961;50.232;8.616;2024-01-25T05:31:08;18.90;;;2.78;;
72087;SDS011;59961;50.232;8.616;2024-01-25T05:33:38;16.77;;;3.13;;
72087;SDS011;59961;50.232;8.616;2024-01-25T05:36:03;20.77;;;3.53;;
72087;SDS011;59961;50.232;8.616;2024-01-25T05:38:28;18.90;;;3.47;;
72087;SDS011;59961;50.232;8.616;2024-01-25T05:40:53;15.45;;;3.40;;
72087;SDS011;59961;50.232;8.616;2024-01-25T05:43:18;15.33;;;3.27;;
72087;SDS011;59961;50.232;8.616;2024-01-25T05:45:44;15.38;;;3.53;;
72087;SDS011;59961;50.232;8.616;2024-01-25T05:48:09;20.02;;;3.08;;
72087;SDS011;59961;50.232;8.616;2024-01-25T05:50:34;16.45;;;3.70;;
72087;SDS011;59961;50.232;8.616;2024-01-25T05:52:59;13.80;;;3.53;;
72087;SDS011;59961;50.232;8.616;2024-01-25T05:55:24;21.23;;;4.00;;
72087;SDS011;59961;50.232;8.616;2024-01-25T05:57:50;22.30;;;3.80;;
72087;SDS011;59961;50.232;8.616;2024-01-25T06:00:15;14.20;;;2.55;;
72087;SDS011;59961;50.232;8.616;2024-01-25T06:02:40;18.35;;;3.28;;
72087;SDS011;59961;50.232;8.616;2024-01-25T06:05:06;21.53;;;4.07;;
72087;SDS011;59961;50.232;8.616;2024-01-25T06:07:31;23.43;;;4.27;;
72087;SDS011;59961;50.232;8.616;2024-01-25T06:09:56;23.45;;;4.47;;
72087;SDS011;59961;50.232;8.616;2024-01-25T06:12:22;17.57;;;3.17;;
72087;SDS011;59961;50.232;8.616;2024-01-25T06:14:47;14.32;;;2.65;;
72087;SDS011;59961;50.232;8.616;2024-01-25T06:17:12;16.20;;;2.93;;
72087;SDS011;59961;50.232;8.616;2024-01-25T06:19:37;22.40;;;3.63;;
72087;SDS011;59961;50.232;8.616;2024-01-25T06:22:02;26.83;;;3.35;;
72087;SDS011;59961;50.232;8.616;2024-01-25T06:24:28;15.97;;;3.83;;
72087;SDS011;59961;50.232;8.616;2024-01-25T06:26:53;17.48;;;3.67;;
72087;SDS011;59961;50.232;8.616;2024-01-25T06:29:19;16.77;;;4.10;;
72087;SDS011;59961;50.232;8.616;2024-01-25T06:31:44;18.63;;;3.53;;
72087;SDS011;59961;50.232;8.616;2024-01-25T06:34:10;18.02;;;3.85;;
72087;SDS011;59961;50.232;8.616;2024-01-25T06:36:35;17.80;;;3.80;;
72087;SDS011;59961;50.232;8.616;2024-01-25T06:39:00;18.10;;;3.27;;
72087;SDS011;59961;50.232;8.616;2024-01-25T06:41:25;22.63;;;3.97;;
72087;SDS011;59961;50.232;8.616;2024-01-25T06:43:50;16.77;;;3.10;;
72087;SDS011;59961;50.232;8.616;2024-01-25T06:46:16;18.30;;;3.90;;
72087;SDS011;59961;50.232;8.616;2024-01-25T06:48:41;18.73;;;3.50;;
72087;SDS011;59961;50.232;8.616;2024-01-25T06:51:06;21.02;;;4.38;;
72087;SDS011;59961;50.232;8.616;2024-01-25T06:53:31;16.17;;;4.05;;
72087;SDS011;59961;50.232;8.616;2024-01-25T06:55:57;15.63;;;2.88;;
72087;SDS011;59961;50.232;8.616;2024-01-25T06:58:22;16.00;;;3.37;;
72087;SDS011;59961;50.232;8.616;2024-01-25T07:00:47;22.50;;;4.17;;
72087;SDS011;59961;50.232;8.616;2024-01-25T07:03:13;14.93;;;3.03;;
72087;SDS011;59961;50.232;8.616;2024-01-25T07:05:40;16.23;;;3.53;;
72087;SDS011;59961;50.232;8.616;2024-01-25T07:08:05;21.47;;;3.77;;
72087;SDS011;59961;50.232;8.616;2024-01-25T07:10:30;17.67;;;4.47;;
72087;SDS011;59961;50.232;8.616;2024-01-25T07:12:56;14.40;;;3.15;;
72087;SDS011;59961;50.232;8.616;2024-01-25T07:15:21;16.88;;;3.72;;
72087;SDS011;59961;50.232;8.616;2024-01-25T07:17:46;22.20;;;4.17;;
72087;SDS011;59961;50.232;8.616;2024-01-25T07:20:11;20.17;;;3.43;;
72087;SDS011;59961;50.232;8.616;2024-01-25T07:22:37;16.63;;;3.43;;
72087;SDS011;59961;50.232;8.616;2024-01-25T07:25:02;22.38;;;4.20;;
72087;SDS011;59961;50.232;8.616;2024-01-25T07:27:27;17.47;;;3.80;;
72087;SDS011;59961;50.232;8.616;2024-01-25T07:29:52;18.45;;;4.32;;
72087;SDS011;59961;50.232;8.616;2024-01-25T07:32:18;17.75;;;3.40;;
72087;SDS011;59961;50.232;8.616;2024-01-25T07:34:43;19.33;;;4.07;;
72087;SDS011;59961;50.232;8.616;2024-01-25T07:37:08;15.23;;;3.20;;
72087;SDS011;59961;50.232;8.616;2024-01-25T07:39:36;21.02;;;4.07;;
72087;SDS011;59961;50.232;8.616;2024-01-25T07:42:01;16.98;;;3.33;;
72087;SDS011;59961;50.232;8.616;2024-01-25T07:44:26;14.80;;;3.30;;
72087;SDS011;59961;50.232;8.616;2024-01-25T07:46:52;13.57;;;3.73;;
72087;SDS011;59961;50.232;8.616;2024-01-25T07:49:17;22.75;;;4.00;;
72087;SDS011;59961;50.232;8.616;2024-01-25T07:51:42;16.40;;;3.67;;
72087;SDS011;59961;50.232;8.616;2024-01-25T07:54:07;15.90;;;3.73;;
72087;SDS011;59961;50.232;8.616;2024-01-25T07:56:32;19.13;;;4.00;;
72087;SDS011;59961;50.232;8.616;2024-01-25T07:58:57;18.63;;;3.65;;
72087;SDS011;59961;50.232;8.616;2024-01-25T08:01:24;15.95;;;3.92;;
72087;SDS011;59961;50.232;8.616;2024-01-25T08:03:50;19.65;;;4.30;;
72087;SDS011;59961;50.232;8.616;2024-01-25T08:06:15;15.82;;;4.15;;
72087;SDS011;59961;50.232;8.616;2024-01-25T08:08:40;29.10;;;4.80;;
72087;SDS011;59961;50.232;8.616;2024-01-25T08:11:05;18.33;;;3.93;;
72087;SDS011;59961;50.232;8.616;2024-01-25T08:13:31;16.23;;;3.40;;
72087;SDS011;59961;50.232;8.616;2024-01-25T08:15:56;15.57;;;3.93;;
72087;SDS011;59961;50.232;8.616;2024-01-25T08:18:21;17.87;;;4.00;;
72087;SDS011;59961;50.232;8.616;2024-01-25T08:20:48;20.27;;;3.70;;
72087;SDS011;59961;50.232;8.616;2024-01-25T08:23:13;15.93;;;4.07;;
72087;SDS011;59961;50.232;8.616;2024-01-25T08:25:38;17.17;;;4.23;;
72087;SDS011;59961;50.232;8.616;2024-01-25T08:28:04;19.37;;;3.90;;
72087;SDS011;59961;50.232;8.616;2024-01-25T08:30:29;16.97;;;3.63;;
72087;SDS011;59961;50.232;8.616;2024-01-25T08:32:54;18.17;;;3.55;;
72087;SDS011;59961;50.232;8.616;2024-01-25T08:35:19;15.23;;;3.33;;
72087;SDS011;59961;50.232;8.616;2024-01-25T08:37:45;16.13;;;3.90;;
72087;SDS011;59961;50.232;8.616;2024-01-25T08:40:10;16.50;;;3.20;;
72087;SDS011;59961;50.232;8.616;2024-01-25T08:42:35;19.40;;;4.17;;
72087;SDS011;59961;50.232;8.616;2024-01-25T08:45:01;19.17;;;3.40;;
72087;SDS011;59961;50.232;8.616;2024-01-25T08:47:26;21.57;;;4.07;;
72087;SDS011;59961;50.232;8.616;2024-01-25T08:49:51;19.10;;;3.15;;
72087;SDS011;59961;50.232;8.616;2024-01-25T08:52:16;20.23;;;3.67;;
72087;SDS011;59961;50.232;8.616;2024-01-25T08:54:41;21.00;;;3.65;;
72087;SDS011;59961;50.232;8.616;2024-01-25T08:57:08;18.17;;;3.50;;
72087;SDS011;59961;50.232;8.616;2024-01-25T08:59:34;16.90;;;3.53;;
72087;SDS011;59961;50.232;8.616;2024-01-25T09:02:02;13.82;;;3.13;;
72087;SDS011;59961;50.232;8.616;2024-01-25T09:04:27;21.33;;;3.73;;
72087;SDS011;59961;50.232;8.616;2024-01-25T09:06:52;15.50;;;3.60;;
72087;SDS011;59961;50.232;8.616;2024-01-25T09:09:18;19.88;;;3.45;;
72087;SDS011;59961;50.232;8.616;2024-01-25T09:11:43;15.53;;;3.37;;
72087;SDS011;59961;50.232;8.616;2024-01-25T09:14:08;17.57;;;4.27;;
72087;SDS011;59961;50.232;8.616;2024-01-25T09:16:33;13.90;;;2.83;;
72087;SDS011;59961;50.232;8.616;2024-01-25T09:18:58;14.68;;;3.65;;
72087;SDS011;59961;50.232;8.616;2024-01-25T09:21:24;20.27;;;3.97;;
72087;SDS011;59961;50.232;8.616;2024-01-25T09:23:49;17.48;;;3.75;;
72087;SDS011;59961;50.232;8.616;2024-01-25T09:26:14;21.27;;;2.70;;
72087;SDS011;59961;50.232;8.616;2024-01-25T09:28:39;14.63;;;3.27;;
72087;SDS011;59961;50.232;8.616;2024-01-25T09:31:05;15.50;;;3.43;;
72087;SDS011;59961;50.232;8.616;2024-01-25T09:33:30;17.45;;;3.35;;
72087;SDS011;59961;50.232;8.616;2024-01-25T09:35:55;17.13;;;3.55;;
72087;SDS011;59961;50.232;8.616;2024-01-25T09:38:20;16.03;;;3.30;;
72087;SDS011;59961;50.232;8.616;2024-01-25T09:40:46;16.93;;;2.77;;
72087;SDS011;59961;50.232;8.616;2024-01-25T09:43:11;22.67;;;3.40;;
72087;SDS011;59961;50.232;8.616;2024-01-25T09:45:37;9.82;;;2.67;;
72087;SDS011;59961;50.232;8.616;2024-01-25T09:48:02;19.63;;;3.80;;
72087;SDS011;59961;50.232;8.616;2024-01-25T09:50:29;17.33;;;3.30;;
72087;SDS011;59961;50.232;8.616;2024-01-25T09:52:58;10.37;;;2.77;;
72087;SDS011;59961;50.232;8.616;2024-01-25T09:55:25;20.02;;;3.95;;
72087;SDS011;59961;50.232;8.616;2024-01-25T09:57:52;14.63;;;3.10;;
72087;SDS011;59961;50.232;8.616;2024-01-25T10:00:18;16.90;;;3.28;;
72087;SDS011;59961;50.232;8.616;2024-01-25T10:02:46;14.25;;;3.88;;
72087;SDS011;59961;50.232;8.616;2024-01-25T10:05:12;18.63;;;3.53;;
72087;SDS011;59961;50.232;8.616;2024-01-25T10:07:37;15.27;;;3.10;;
72087;SDS011;59961;50.232;8.616;2024-01-25T10:10:03;13.20;;;3.63;;
72087;SDS011;59961;50.232;8.616;2024-01-25T10:12:30;18.08;;;3.38;;
72087;SDS011;59961;50.232;8.616;2024-01-25T10:14:55;20.20;;;3.27;;
72087;SDS011;59961;50.232;8.616;2024-01-25T10:17:20;23.90;;;3.70;;
72087;SDS011;59961;50.232;8.616;2024-01-25T10:19:45;14.18;;;3.17;;
72087;SDS011;59961;50.232;8.616;2024-01-25T10:22:11;16.47;;;3.43;;
72087;SDS011;59961;50.232;8.616;2024-01-25T10:24:37;15.18;;;3.30;;
72087;SDS011;59961;50.232;8.616;2024-01-25T10:27:03;12.65;;;2.60;;
72087;SDS011;59961;50.232;8.616;2024-01-25T10:29:28;13.70;;;2.73;;
72087;SDS011;59961;50.232;8.616;2024-01-25T10:31:54;20.10;;;3.47;;
72087;SDS011;59961;50.232;8.616;2024-01-25T10:34:19;18.70;;;3.37;;
72087;SDS011;59961;50.232;8.616;2024-01-25T10:36:45;17.27;;;4.10;;
72087;SDS011;59961;50.232;8.616;2024-01-25T10:39:10;17.10;;;3.00;;
72087;SDS011;59961;50.232;8.616;2024-01-25T10:41:36;22.48;;;3.80;;
72087;SDS011;59961;50.232;8.616;2024-01-25T10:44:02;21.37;;;3.87;;
72087;SDS011;59961;50.232;8.616;2024-01-25T10:46:28;21.13;;;3.47;;
72087;SDS011;59961;50.232;8.616;2024-01-25T10:48:55;16.17;;;2.83;;
72087;SDS011;59961;50.232;8.616;2024-01-25T10:51:25;14.65;;;2.63;;
72087;SDS011;59961;50.232;8.616;2024-01-25T10:53:51;15.15;;;3.03;;
72087;SDS011;59961;50.232;8.616;2024-01-25T10:56:16;16.63;;;2.63;;
72087;SDS011;59961;50.232;8.616;2024-01-25T10:58:42;12.87;;;2.47;;
72087;SDS011;59961;50.232;8.616;2024-01-25T11:01:08;19.35;;;3.13;;
72087;SDS011;59961;50.232;8.616;2024-01-25T11:03:36;12.63;;;3.25;;
72087;SDS011;59961;50.232;8.616;2024-01-25T11:06:07;17.52;;;2.65;;
72087;SDS011;59961;50.232;8.616;2024-01-25T11:08:33;14.23;;;2.43;;
72087;SDS011;59961;50.232;8.616;2024-01-25T11:10:58;13.27;;;3.17;;
72087;SDS011;59961;50.232;8.616;2024-01-25T11:13:24;15.47;;;2.67;;
72087;SDS011;59961;50.232;8.616;2024-01-25T11:15:51;16.98;;;2.75;;
72087;SDS011;59961;50.232;8.616;2024-01-25T11:18:16;15.57;;;2.43;;
72087;SDS011;59961;50.232;8.616;2024-01-25T11:20:43;13.73;;;3.37;;
72087;SDS011;59961;50.232;8.616;2024-01-25T11:23:11;16.98;;;2.40;;
72087;SDS011;59961;50.232;8.616;2024-01-25T11:25:40;14.70;;;2.70;;
72087;SDS011;59961;50.232;8.616;2024-01-25T11:28:08;13.93;;;2.40;;
72087;SDS011;59961;50.232;8.616;2024-01-25T11:30:34;14.70;;;2.43;;
72087;SDS011;59961;50.232;8.616;2024-01-25T11:33:00;16.60;;;3.43;;
72087;SDS011;59961;50.232;8.616;2024-01-25T11:35:25;12.53;;;3.07;;
72087;SDS011;59961;50.232;8.616;2024-01-25T11:37:52;14.13;;;2.50;;
72087;SDS011;59961;50.232;8.616;2024-01-25T11:40:18;17.73;;;2.60;;
72087;SDS011;59961;50.232;8.616;2024-01-25T11:42:44;11.50;;;2.45;;
72087;SDS011;59961;50.232;8.616;2024-01-25T11:45:10;17.60;;;3.20;;
72087;SDS011;59961;50.232;8.616;2024-01-25T11:47:36;13.85;;;2.58;;
72087;SDS011;59961;50.232;8.616;2024-01-25T11:50:02;15.27;;;2.67;;
72087;SDS011;59961;50.232;8.616;2024-01-25T11:52:27;11.70;;;2.58;;
72087;SDS011;59961;50.232;8.616;2024-01-25T11:54:52;7.77;;;1.90;;
72087;SDS011;59961;50.232;8.616;2024-01-25T11:57:24;9.02;;;1.83;;
72087;SDS011;59961;50.232;8.616;2024-01-25T11:59:49;17.52;;;2.35;;
72087;SDS011;59961;50.232;8.616;2024-01-25T12:02:14;15.57;;;2.33;;
72087;SDS011;59961;50.232;8.616;2024-01-25T12:04:40;14.00;;;2.23;;
72087;SDS011;59961;50.232;8.616;2024-01-25T12:07:05;11.48;;;2.42;;
72087;SDS011;59961;50.232;8.616;2024-01-25T12:09:33;15.68;;;2.78;;
72087;SDS011;59961;50.232;8.616;2024-01-25T12:11:59;16.10;;;3.22;;
72087;SDS011;59961;50.232;8.616;2024-01-25T12:14:25;17.70;;;2.25;;
72087;SDS011;59961;50.232;8.616;2024-01-25T12:16:50;21.43;;;2.93;;
72087;SDS011;59961;50.232;8.616;2024-01-25T12:19:15;19.13;;;2.95;;
72087;SDS011;59961;50.232;8.616;2024-01-25T12:21:43;17.90;;;3.63;;
72087;SDS011;59961;50.232;8.616;2024-01-25T12:24:08;19.02;;;3.03;;
72087;SDS011;59961;50.232;8.616;2024-01-25T12:26:34;20.87;;;3.10;;
72087;SDS011;59961;50.232;8.616;2024-01-25T12:29:02;15.25;;;2.88;;
72087;SDS011;59961;50.232;8.616;2024-01-25T12:31:28;18.07;;;2.70;;
72087;SDS011;59961;50.232;8.616;2024-01-25T12:33:53;15.43;;;2.47;;
72087;SDS011;59961;50.232;8.616;2024-01-25T12:36:18;18.23;;;2.90;;
72087;SDS011;59961;50.232;8.616;2024-01-25T12:38:43;16.77;;;3.67;;
72087;SDS011;59961;50.232;8.616;2024-01-25T12:41:08;17.57;;;3.13;;
72087;SDS011;59961;50.232;8.616;2024-01-25T12:43:34;17.43;;;3.03;;
72087;SDS011;59961;50.232;8.616;2024-01-25T12:45:59;14.65;;;2.97;;
72087;SDS011;59961;50.232;8.616;2024-01-25T12:48:24;17.23;;;3.10;;
72087;SDS011;59961;50.232;8.616;2024-01-25T12:50:50;19.07;;;2.63;;
72087;SDS011;59961;50.232;8.616;2024-01-25T12:53:15;12.83;;;2.57;;
72087;SDS011;59961;50.232;8.616;2024-01-25T12:55:40;15.83;;;3.10;;
72087;SDS011;59961;50.232;8.616;2024-01-25T12:58:06;15.20;;;3.00;;
72087;SDS011;59961;50.232;8.616;2024-01-25T13:00:31;12.17;;;2.73;;
72087;SDS011;59961;50.232;8.616;2024-01-25T13:02:58;15.25;;;2.58;;
72087;SDS011;59961;50.232;8.616;2024-01-25T13:05:23;21.97;;;3.50;;
72087;SDS011;59961;50.232;8.616;2024-01-25T13:07:49;14.10;;;2.67;;
72087;SDS011;59961;50.232;8.616;2024-01-25T13:10:14;16.35;;;2.90;;
72087;SDS011;59961;50.232;8.616;2024-01-25T13:12:39;20.60;;;3.23;;
72087;SDS011;59961;50.232;8.616;2024-01-25T13:15:05;19.93;;;3.63;;
72087;SDS011;59961;50.232;8.616;2024-01-25T13:17:30;15.13;;;3.10;;
72087;SDS011;59961;50.232;8.616;2024-01-25T13:19:57;18.73;;;4.20;;
72087;SDS011;59961;50.232;8.616;2024-01-25T13:22:22;15.82;;;2.92;;
72087;SDS011;59961;50.232;8.616;2024-01-25T13:24:49;16.83;;;3.67;;
72087;SDS011;59961;50.232;8.616;2024-01-25T13:27:14;13.68;;;2.72;;
72087;SDS011;59961;50.232;8.616;2024-01-25T13:29:41;15.02;;;3.53;;
72087;SDS011;59961;50.232;8.616;2024-01-25T13:32:07;14.43;;;2.47;;
72087;SDS011;59961;50.232;8.616;2024-01-25T13:34:32;14.37;;;2.80;;
72087;SDS011;59961;50.232;8.616;2024-01-25T13:36:57;14.82;;;2.65;;
72087;SDS011;59961;50.232;8.616;2024-01-25T13:39:22;16.27;;;3.08;;
72087;SDS011;59961;50.232;8.616;2024-01-25T13:41:48;16.27;;;2.77;;
72087;SDS011;59961;50.232;8.616;2024-01-25T13:44:15;19.42;;;3.08;;
72087;SDS011;59961;50.232;8.616;2024-01-25T13:46:40;25.57;;;4.13;;
72087;SDS011;59961;50.232;8.616;2024-01-25T13:49:06;16.30;;;3.57;;
72087;SDS011;59961;50.232;8.616;2024-01-25T13:51:31;15.87;;;3.10;;
72087;SDS011;59961;50.232;8.616;2024-01-25T13:53:56;18.13;;;3.10;;
72087;SDS011;59961;50.232;8.616;2024-01-25T13:56:21;17.53;;;3.57;;
72087;SDS011;59961;50.232;8.616;2024-01-25T13:58:46;18.23;;;2.67;;
72087;SDS011;59961;50.232;8.616;2024-01-25T14:01:11;22.03;;;3.33;;
72087;SDS011;59961;50.232;8.616;2024-01-25T14:03:37;16.80;;;2.50;;
72087;SDS011;59961;50.232;8.616;2024-01-25T14:06:02;12.77;;;2.60;;
72087;SDS011;59961;50.232;8.616;2024-01-25T14:08:29;19.60;;;2.67;;
72087;SDS011;59961;50.232;8.616;2024-01-25T14:10:54;13.93;;;2.75;;
72087;SDS011;59961;50.232;8.616;2024-01-25T14:13:20;17.87;;;2.73;;
72087;SDS011;59961;50.232;8.616;2024-01-25T14:15:45;13.53;;;3.03;;
72087;SDS011;59961;50.232;8.616;2024-01-25T14:18:11;14.07;;;3.10;;
72087;SDS011;59961;50.232;8.616;2024-01-25T14:20:37;15.68;;;2.45;;
72087;SDS011;59961;50.232;8.616;2024-01-25T14:23:03;15.80;;;2.83;;
72087;SDS011;59961;50.232;8.616;2024-01-25T14:25:32;20.53;;;3.17;;
72087;SDS011;59961;50.232;8.616;2024-01-25T14:27:57;18.02;;;3.10;;